Time;durP1;ratioP1;P1;durP2;ratioP2;P2;SDS_P1;SDS_P2;PMS_P1;PMS_P2;Temp;Humidity;BMP_temperature;BMP_pressure;BME280_temperature;BME280_humidity;BME280_pressure;Samples;Min_cycle;Max_cycle;Signal;HPM_P1;HPM_P2
2021/12/13 00:02:11;;;;;;;6.15;3.05;;;12.70;89.90;;;;;;5110844;28;20032;-69
2021/12/13 00:04:43;;;;;;;5.03;3.80;;;12.70;89.70;;;;;;5110412;28;20027;-69
2021/12/13 00:07:25;;;;;;;6.43;3.63;;;12.60;89.80;;;;;;5100316;28;20023;-69
2021/12/13 00:09:55;;;;;;;5.72;3.40;;;12.60;90.00;;;;;;5111915;28;20096;-69
2021/12/13 00:12:26;;;;;;;5.65;3.42;;;12.60;90.00;;;;;;5091797;28;20051;-69
2021/12/13 00:14:53;;;;;;;7.15;3.45;;;12.50;90.10;;;;;;5110054;28;20102;-69
2021/12/13 00:17:43;;;;;;;5.93;3.33;;;12.50;90.00;;;;;;5110449;28;20023;-69
2021/12/13 00:20:26;;;;;;;6.18;3.50;;;12.70;90.40;;;;;;5091744;28;20057;-69
2021/12/13 00:22:52;;;;;;;;;;;12.70;90.20;;;;;;5109494;28;20380;-69
2021/12/13 00:25:27;;;;;;;4.85;2.97;;;12.60;90.00;;;;;;5115703;27;19962;-69
2021/12/13 00:28:00;;;;;;;9.07;3.65;;;12.60;90.00;;;;;;5112106;28;20533;-69
2021/12/13 00:30:25;;;;;;;4.35;2.92;;;12.60;90.10;;;;;;5109361;28;20062;-69
2021/12/13 00:33:32;;;;;;;5.25;3.50;;;12.50;90.20;;;;;;5110348;28;20043;-69
2021/12/13 00:36:17;;;;;;;5.80;3.33;;;12.60;90.20;;;;;;5110388;28;20042;-69
2021/12/13 00:38:55;;;;;;;5.15;3.17;;;12.60;90.20;;;;;;5110204;28;20500;-69
2021/12/13 00:41:26;;;;;;;5.60;3.50;;;12.50;90.00;;;;;;5109889;28;20027;-69
2021/12/13 00:44:00;;;;;;;5.00;3.38;;;12.50;90.20;;;;;;5110189;28;20016;-69
2021/12/13 00:46:27;;;;;;;6.03;3.25;;;12.50;90.10;;;;;;5093838;28;20042;-69
2021/12/13 00:48:56;;;;;;;5.72;3.40;;;12.50;90.10;;;;;;5112235;28;20042;-69
2021/12/13 00:51:29;;;;;;;4.85;2.90;;;12.40;90.30;;;;;;5101174;28;20027;-69
2021/12/13 00:53:58;;;;;;;4.88;2.90;;;12.50;90.40;;;;;;5106796;28;20043;-69
2021/12/13 00:56:48;;;;;;;6.55;2.78;;;12.50;90.50;;;;;;5111154;28;20519;-69
2021/12/13 00:59:27;;;;;;;4.95;2.72;;;12.50;90.40;;;;;;5114087;28;20069;-69
2021/12/13 01:02:03;;;;;;;3.55;2.53;;;12.50;90.60;;;;;;5113043;28;20071;-69
2021/12/13 01:04:50;;;;;;;4.20;2.80;;;12.50;90.60;;;;;;5098580;28;20028;-69
2021/12/13 01:07:54;;;;;;;4.88;3.00;;;12.50;90.40;;;;;;5114169;28;20107;-69
2021/12/13 01:10:41;;;;;;;4.72;2.60;;;12.50;90.50;;;;;;5113906;28;20097;-69
2021/12/13 01:13:29;;;;;;;5.53;2.63;;;12.50;90.40;;;;;;5112516;28;20028;-69
2021/12/13 01:16:09;;;;;;;6.10;2.65;;;12.50;90.60;;;;;;5111789;28;20046;-69
2021/12/13 01:21:53;;;;;;;4.68;2.90;;;12.50;90.40;;;;;;5115673;28;20034;-69
2021/12/13 01:24:52;;;;;;;4.13;2.70;;;12.60;90.60;;;;;;5113389;28;20171;-69
2021/12/13 01:27:08;;;;;;;4.97;2.65;;;12.50;90.60;;;;;;5115215;27;20499;-69
2021/12/13 01:29:34;;;;;;;3.92;3.03;;;12.60;90.60;;;;;;5113633;28;20063;-69
2021/12/13 01:32:09;;;;;;;4.35;2.70;;;12.50;90.50;;;;;;5113848;28;20027;-69
2021/12/13 01:34:37;;;;;;;3.63;2.45;;;12.50;90.40;;;;;;5113678;28;20054;-69
2021/12/13 01:37:13;;;;;;;5.93;2.95;;;12.50;90.50;;;;;;5114752;28;20445;-69
2021/12/13 01:39:47;;;;;;;3.13;2.30;;;12.50;90.30;;;;;;5113780;28;20019;-69
2021/12/13 01:42:21;;;;;;;5.00;2.58;;;12.40;90.50;;;;;;5112270;28;20016;-69
2021/12/13 01:44:52;;;;;;;4.80;2.60;;;12.50;90.70;;;;;;5113266;28;20074;-69
2021/12/13 01:47:34;;;;;;;4.45;3.08;;;12.50;90.60;;;;;;5113183;28;20114;-69
2021/12/13 01:50:22;;;;;;;4.95;2.90;;;12.50;90.60;;;;;;5113278;28;20043;-69
2021/12/13 01:52:52;;;;;;;4.65;2.67;;;12.40;90.40;;;;;;5112999;28;20069;-69
2021/12/13 01:55:29;;;;;;;5.65;3.17;;;12.50;90.60;;;;;;5113133;28;20052;-69
2021/12/13 02:01:09;;;;;;;5.07;2.88;;;12.40;90.70;;;;;;5115183;28;20035;-69
2021/12/13 02:03:55;;;;;;;5.72;3.33;;;12.40;90.70;;;;;;5113418;27;20411;-69
2021/12/13 02:06:39;;;;;;;4.90;2.97;;;12.50;90.80;;;;;;5112444;28;20035;-69
2021/12/13 02:09:23;;;;;;;4.38;3.13;;;12.50;90.70;;;;;;5112798;28;20494;-69
2021/12/13 02:11:53;;;;;;;5.75;3.03;;;12.40;90.60;;;;;;5113029;28;20028;-69
2021/12/13 02:14:25;;;;;;;5.30;3.40;;;12.40;90.80;;;;;;5112740;28;20488;-69
2021/12/13 02:17:10;;;;;;;3.95;3.20;;;12.40;90.90;;;;;;5112933;28;20052;-69
2021/12/13 02:19:44;;;;;;;4.65;3.30;;;12.30;90.60;;;;;;5096431;28;20116;-69
2021/12/13 02:22:31;;;;;;;5.22;3.50;;;12.30;90.90;;;;;;5112820;28;20023;-69
2021/12/13 02:25:03;;;;;;;3.83;3.08;;;12.30;90.70;;;;;;5116261;27;20023;-69
2021/12/13 02:27:32;;;;;;;4.28;2.92;;;12.40;91.10;;;;;;5113522;28;20019;-69
2021/12/13 02:30:11;;;;;;;5.22;3.65;;;12.30;90.80;;;;;;5112329;28;20409;-69
2021/12/13 02:32:40;;;;;;;4.72;3.55;;;12.20;90.70;;;;;;5111493;28;20365;-69
2021/12/13 02:35:07;;;;;;;4.22;3.42;;;12.20;91.10;;;;;;5112285;28;20484;-69
2021/12/13 02:37:34;;;;;;;5.20;3.63;;;12.20;91.20;;;;;;5112782;28;20020;-69
2021/12/13 02:40:00;;;;;;;5.45;3.90;;;12.20;91.10;;;;;;5113902;28;20496;-69
2021/12/13 02:42:28;;;;;;;5.40;4.20;;;12.30;91.20;;;;;;5111539;28;20358;-69
2021/12/13 02:45:01;;;;;;;5.28;4.20;;;12.30;91.20;;;;;;5112113;28;20023;-69
2021/12/13 02:47:40;;;;;;;5.25;4.00;;;12.20;90.90;;;;;;5094011;28;20569;-69
2021/12/13 02:50:15;;;;;;;5.38;3.97;;;12.20;91.10;;;;;;5111775;28;20059;-69
2021/12/13 02:52:41;;;;;;;6.22;4.00;;;12.20;91.50;;;;;;5112314;28;20028;-69
2021/12/13 02:55:13;;;;;;;5.25;3.75;;;12.20;91.30;;;;;;5112805;28;20078;-69
2021/12/13 02:57:44;;;;;;;7.05;4.45;;;12.20;91.20;;;;;;5112307;28;20020;-69
2021/12/13 03:00:23;;;;;;;5.78;4.38;;;12.20;91.10;;;;;;5110402;28;20015;-69
2021/12/13 03:02:52;;;;;;;5.32;4.07;;;12.30;91.30;;;;;;5112035;28;20110;-69
2021/12/13 03:05:27;;;;;;;5.82;4.75;;;12.30;91.20;;;;;;5111314;28;20114;-69
2021/12/13 03:07:57;;;;;;;5.15;4.47;;;12.30;91.20;;;;;;5112038;28;20032;-69
2021/12/13 03:10:37;;;;;;;5.00;4.03;;;12.40;91.30;;;;;;5093660;28;20027;-70
2021/12/13 03:13:03;;;;;;;5.03;4.25;;;12.30;91.20;;;;;;5110353;28;20027;-69
2021/12/13 03:15:31;;;;;;;6.82;4.65;;;12.40;91.30;;;;;;5112296;28;20434;-70
2021/12/13 03:18:15;;;;;;;6.75;4.68;;;12.40;91.00;;;;;;5093399;28;20020;-70
2021/12/13 03:21:02;;;;;;;5.88;4.90;;;12.40;91.00;;;;;;5110481;28;20027;-69
2021/12/13 03:24:05;;;;;;;5.72;4.60;;;12.30;90.90;;;;;;5111678;28;20046;-69
2021/12/13 03:26:55;;;;;;;5.22;4.72;;;12.30;90.90;;;;;;5116755;27;20024;-69
2021/12/13 03:29:28;;;;;;;5.47;4.43;;;12.20;91.00;;;;;;5111187;28;20050;-69
2021/12/13 03:31:58;;;;;;;7.50;5.00;;;12.20;91.10;;;;;;5111503;28;20050;-69
2021/12/13 03:34:31;;;;;;;6.20;5.32;;;12.30;91.30;;;;;;5111043;28;20028;-69
2021/12/13 03:36:59;;;;;;;;;;;12.20;91.00;;;;;;5109773;28;20106;-69
2021/12/13 03:39:35;;;;;;;5.80;4.22;;;12.20;91.10;;;;;;5110282;28;20265;-69
2021/12/13 03:42:05;;;;;;;5.70;4.95;;;12.20;91.30;;;;;;5111268;28;20024;-69
2021/12/13 03:44:39;;;;;;;7.15;4.57;;;12.20;91.10;;;;;;5109789;28;20476;-69
2021/12/13 03:47:12;;;;;;;5.50;4.63;;;12.20;91.30;;;;;;5109617;28;20093;-69
2021/12/13 03:50:01;;;;;;;5.60;4.57;;;12.20;91.20;;;;;;5109324;28;20545;-69
2021/12/13 03:52:30;;;;;;;5.60;4.63;;;12.20;91.30;;;;;;5095265;28;20099;-70
2021/12/13 03:54:59;;;;;;;5.72;4.60;;;12.20;91.10;;;;;;5113068;28;20127;-69
2021/12/13 03:57:27;;;;;;;8.82;5.78;;;12.20;91.20;;;;;;5109897;28;20076;-70
2021/12/13 03:59:53;;;;;;;6.18;5.07;;;12.20;91.00;;;;;;5110646;28;20028;-69
2021/12/13 04:02:34;;;;;;;6.72;4.60;;;12.20;90.80;;;;;;5110492;28;20478;-70
2021/12/13 04:05:06;;;;;;;5.93;5.18;;;12.20;91.10;;;;;;5092627;28;20034;-69
2021/12/13 04:07:39;;;;;;;7.32;5.25;;;12.10;90.90;;;;;;5095511;28;20121;-69
2021/12/13 04:10:21;;;;;;;6.43;5.00;;;12.10;91.20;;;;;;5103470;28;20031;-70
2021/12/13 04:12:51;;;;;;;6.25;4.53;;;12.10;91.20;;;;;;5111960;28;20508;-68
2021/12/13 04:15:26;;;;;;;6.35;4.90;;;12.20;91.20;;;;;;5110316;28;20019;-68
2021/12/13 04:18:02;;;;;;;6.47;5.07;;;12.00;90.90;;;;;;5110170;28;20047;-68
2021/12/13 04:20:33;;;;;;;5.80;5.15;;;12.00;91.00;;;;;;5110570;28;20118;-68
2021/12/13 04:23:16;;;;;;;5.85;4.50;;;12.00;91.30;;;;;;5092431;28;20051;-68
2021/12/13 04:25:44;;;;;;;6.35;4.55;;;12.00;91.20;;;;;;5123423;27;20028;-68
2021/12/13 04:28:17;;;;;;;6.30;4.57;;;12.10;91.30;;;;;;5110529;28;20038;-68
2021/12/13 04:30:50;;;;;;;5.88;4.65;;;12.00;91.00;;;;;;5111096;28;20572;-68
2021/12/13 04:33:22;;;;;;;7.15;5.13;;;12.00;90.90;;;;;;5109975;28;20016;-68
2021/12/13 04:35:51;;;;;;;5.45;4.45;;;12.00;90.80;;;;;;5110313;28;20024;-68
2021/12/13 04:38:21;;;;;;;5.88;4.50;;;12.00;91.70;;;;;;5110206;28;20391;-68
2021/12/13 04:40:47;;;;;;;7.10;4.70;;;12.00;91.20;;;;;;5110306;28;20072;-68
2021/12/13 04:43:17;;;;;;;6.07;4.53;;;12.10;91.10;;;;;;5110127;28;20023;-68
2021/12/13 04:45:46;;;;;;;7.63;4.60;;;12.00;90.80;;;;;;5093812;28;20126;-68
2021/12/13 04:48:21;;;;;;;5.78;4.47;;;12.00;91.00;;;;;;5110045;28;20035;-68
2021/12/13 04:51:06;;;;;;;5.78;4.47;;;12.00;91.00;;;;;;5091884;28;20034;-68
2021/12/13 04:53:36;;;;;;;6.10;4.78;;;12.00;90.80;;;;;;5110028;28;20019;-68
2021/12/13 04:56:06;;;;;;;7.38;4.57;;;12.00;90.90;;;;;;5110038;28;20487;-69
2021/12/13 04:58:32;;;;;;;5.45;4.50;;;12.00;91.00;;;;;;5110252;28;20024;-68
2021/12/13 05:01:01;;;;;;;9.05;5.00;;;12.00;91.10;;;;;;5111801;28;20020;-68
2021/12/13 05:03:36;;;;;;;6.30;4.85;;;12.00;90.90;;;;;;5110716;28;20111;-69
2021/12/13 05:06:07;;;;;;;6.50;4.90;;;12.00;91.00;;;;;;5110003;28;20487;-68
2021/12/13 05:08:34;;;;;;;7.22;5.18;;;12.00;91.20;;;;;;5110154;28;20062;-69
2021/12/13 05:11:05;;;;;;;6.95;4.75;;;12.00;91.50;;;;;;5110337;28;20476;-68
2021/12/13 05:13:37;;;;;;;5.85;4.80;;;11.90;90.80;;;;;;5094527;28;20479;-68
2021/12/13 05:16:09;;;;;;;5.93;4.43;;;11.90;90.90;;;;;;5110511;28;20027;-69
2021/12/13 05:18:43;;;;;;;6.82;5.10;;;11.80;90.60;;;;;;5111726;28;20072;-68
2021/12/13 05:21:12;;;;;;;;;;;11.70;90.50;;;;;;5109650;28;20067;-68
2021/12/13 05:23:52;;;;;;;5.93;4.03;;;11.60;90.60;;;;;;5108177;28;19930;-68
2021/12/13 05:26:43;;;;;;;6.65;4.75;;;11.60;91.10;;;;;;5113593;28;20033;-68
2021/12/13 05:29:32;;;;;;;5.53;4.35;;;11.70;90.90;;;;;;5088356;28;20039;-68
2021/12/13 05:32:19;;;;;;;6.53;4.80;;;11.60;90.80;;;;;;5109976;28;20060;-69
2021/12/13 05:34:51;;;;;;;6.10;4.40;;;11.60;91.00;;;;;;5096141;28;20024;-69
2021/12/13 05:37:18;;;;;;;6.03;4.20;;;11.60;90.80;;;;;;5109747;28;20016;-70
2021/12/13 05:40:04;;;;;;;8.05;5.03;;;11.60;91.20;;;;;;5111723;28;20028;-69
2021/12/13 05:42:37;;;;;;;7.07;4.15;;;11.60;90.80;;;;;;5111703;28;20111;-69
2021/12/13 05:45:05;;;;;;;7.18;4.63;;;11.60;90.90;;;;;;5113199;28;20069;-69
2021/12/13 05:47:31;;;;;;;5.78;4.40;;;11.60;90.70;;;;;;5113220;28;20094;-69
2021/12/13 05:49:57;;;;;;;5.30;3.95;;;11.60;90.90;;;;;;5113390;28;20053;-69
2021/12/13 05:52:37;;;;;;;6.80;4.75;;;11.50;90.80;;;;;;5113457;28;20514;-69
2021/12/13 05:55:12;;;;;;;6.53;4.68;;;11.50;90.80;;;;;;5114260;28;20043;-69
2021/12/13 05:57:43;;;;;;;5.72;4.28;;;11.50;91.10;;;;;;5115028;28;20028;-69
2021/12/13 06:00:23;;;;;;;6.97;4.45;;;11.50;91.00;;;;;;5112823;28;20099;-69
2021/12/13 06:03:05;;;;;;;6.93;4.95;;;11.50;90.90;;;;;;5113114;28;20039;-69
2021/12/13 06:05:40;;;;;;;5.70;4.50;;;11.50;91.10;;;;;;5112624;28;20032;-68
2021/12/13 06:08:31;;;;;;;6.78;4.80;;;11.40;90.80;;;;;;5113035;28;20015;-69
2021/12/13 06:11:03;;;;;;;5.03;3.90;;;11.50;91.20;;;;;;5112546;28;20458;-69
2021/12/13 06:13:46;;;;;;;6.93;4.93;;;11.50;91.10;;;;;;5095214;28;20026;-69
2021/12/13 06:16:25;;;;;;;6.88;5.30;;;11.40;90.70;;;;;;5112959;28;20019;-69
2021/12/13 06:19:21;;;;;;;5.68;4.18;;;11.30;90.80;;;;;;5114368;28;20031;-69
2021/12/13 06:22:06;;;;;;;5.00;3.95;;;11.30;91.10;;;;;;5113943;28;20706;-69
2021/12/13 06:24:37;;;;;;;5.43;4.30;;;11.40;91.40;;;;;;5115786;27;20544;-69
2021/12/13 06:27:14;;;;;;;4.82;3.70;;;11.40;91.40;;;;;;5115148;27;20404;-69
2021/12/13 06:29:48;;;;;;;5.97;4.13;;;11.40;91.00;;;;;;5112300;28;20502;-69
2021/12/13 06:32:30;;;;;;;5.72;4.32;;;11.30;90.80;;;;;;5093984;28;20027;-69
2021/12/13 06:34:59;;;;;;;5.65;3.90;;;11.20;91.00;;;;;;5112565;28;20574;-69
2021/12/13 06:37:35;;;;;;;5.38;3.67;;;11.20;91.30;;;;;;5112594;28;20112;-69
2021/12/13 06:40:31;;;;;;;6.03;4.05;;;11.20;91.10;;;;;;5110619;28;20392;-69
2021/12/13 06:42:59;;;;;;;5.18;3.63;;;11.20;91.10;;;;;;5114081;28;20089;-69
2021/12/13 06:45:32;;;;;;;4.82;3.85;;;11.30;91.40;;;;;;5112546;28;20024;-69
2021/12/13 06:48:01;;;;;;;5.47;4.15;;;11.40;91.30;;;;;;5112266;28;20028;-69
2021/12/13 06:50:31;;;;;;;5.32;4.03;;;11.40;91.20;;;;;;5112297;28;20027;-69
2021/12/13 06:53:13;;;;;;;6.03;4.22;;;11.30;90.80;;;;;;5094005;28;20028;-69
2021/12/13 06:55:39;;;;;;;6.47;3.90;;;11.30;91.00;;;;;;5096686;28;20088;-69
2021/12/13 06:58:24;;;;;;;6.05;4.25;;;11.30;91.00;;;;;;5112588;28;20091;-69
2021/12/13 07:00:55;;;;;;;5.30;4.10;;;11.20;90.80;;;;;;5113650;28;20051;-69
2021/12/13 07:03:26;;;;;;;5.22;3.65;;;11.20;91.30;;;;;;5111741;28;20118;-69
2021/12/13 07:06:00;;;;;;;5.72;4.55;;;11.30;91.40;;;;;;5111760;28;20503;-69
2021/12/13 07:08:28;;;;;;;7.70;4.82;;;11.30;90.90;;;;;;5111853;28;20119;-69
2021/12/13 07:10:55;;;;;;;8.00;3.95;;;11.20;90.70;;;;;;5111471;28;20547;-69
2021/12/13 07:13:33;;;;;;;5.63;4.15;;;11.10;90.90;;;;;;5111699;28;20032;-69
2021/12/13 07:16:16;;;;;;;6.05;4.32;;;11.20;91.40;;;;;;5109603;28;20020;-69
2021/12/13 07:18:55;;;;;;;5.95;4.10;;;11.30;91.00;;;;;;5093571;28;20039;-69
2021/12/13 07:21:33;;;;;;;5.22;3.65;;;11.20;91.10;;;;;;5111685;28;20015;-69
2021/12/13 07:24:08;;;;;;;5.07;3.72;;;11.30;91.20;;;;;;5111470;28;20495;-69
2021/12/13 07:26:57;;;;;;;4.75;3.40;;;11.30;91.00;;;;;;5116590;27;20118;-69
2021/12/13 07:29:36;;;;;;;4.93;3.20;;;11.30;90.80;;;;;;5108206;28;20059;-69
2021/12/13 07:32:14;;;;;;;5.90;3.78;;;11.30;90.90;;;;;;5106692;28;20036;-69
2021/12/13 07:35:18;;;;;;;3.75;2.88;;;11.20;90.50;;;;;;5108624;28;20028;-69
2021/12/13 07:37:56;;;;;;;5.15;3.42;;;11.20;91.00;;;;;;5097869;28;20027;-69
2021/12/13 07:40:34;;;;;;;6.80;3.78;;;11.30;90.70;;;;;;5110546;28;20020;-69
2021/12/13 07:43:03;;;;;;;5.07;3.47;;;11.20;91.00;;;;;;5112704;28;20068;-69
2021/12/13 07:45:49;;;;;;;4.13;3.30;;;11.30;91.20;;;;;;5110529;28;20031;-68
2021/12/13 07:48:19;;;;;;;4.57;3.45;;;11.20;90.60;;;;;;5110370;28;20055;-68
2021/12/13 07:50:58;;;;;;;5.32;3.85;;;11.10;90.80;;;;;;5115488;27;20023;-68
2021/12/13 07:53:27;;;;;;;6.15;3.55;;;11.00;90.40;;;;;;5110084;27;20023;-69
2021/12/13 07:55:53;;;;;;;7.35;3.75;;;11.00;90.70;;;;;;5101461;27;20503;-68
2021/12/13 07:58:44;;;;;;;4.78;3.60;;;11.00;90.90;;;;;;5116500;27;20107;-69
2021/12/13 08:01:20;;;;;;;4.30;3.17;;;11.10;91.00;;;;;;5113468;27;20031;-69
2021/12/13 08:03:53;;;;;;;5.00;3.33;;;11.10;91.10;;;;;;5106486;28;20388;-69
2021/12/13 08:06:20;;;;;;;6.72;4.00;;;11.10;90.80;;;;;;5108946;27;20114;-70
2021/12/13 08:08:54;;;;;;;4.28;3.40;;;11.10;90.60;;;;;;5108286;27;20039;-69
2021/12/13 08:11:42;;;;;;;5.32;3.10;;;11.10;90.60;;;;;;5115229;27;20028;-67
2021/12/13 08:14:09;;;;;;;3.88;2.70;;;11.00;90.50;;;;;;5115977;27;20031;-68
2021/12/13 08:16:40;;;;;;;3.88;2.50;;;11.00;90.50;;;;;;5117829;27;20015;-69
2021/12/13 08:19:13;;;;;;;3.53;2.50;;;11.10;90.20;;;;;;5116801;27;20027;-68
2021/12/13 08:21:44;;;;;;;4.45;2.67;;;10.90;90.40;;;;;;5121782;27;20023;-69
2021/12/13 08:24:26;;;;;;;6.10;2.83;;;11.00;90.60;;;;;;5111331;27;20024;-68
2021/12/13 08:27:00;;;;;;;3.45;2.63;;;11.00;90.50;;;;;;5111025;27;20038;-68
2021/12/13 08:29:31;;;;;;;5.50;2.90;;;11.00;90.50;;;;;;5117733;27;20035;-63
2021/12/13 08:32:01;;;;;;;5.65;2.58;;;11.10;90.60;;;;;;5115899;27;20026;-61
2021/12/13 08:34:29;;;;;;;3.80;2.72;;;11.10;90.40;;;;;;5123616;27;20032;-62
2021/12/13 08:36:56;;;;;;;3.78;2.97;;;11.10;90.00;;;;;;5117772;27;20034;-61
2021/12/13 08:39:29;;;;;;;4.47;2.83;;;11.00;90.10;;;;;;5118993;27;20118;-61
2021/12/13 08:42:09;;;;;;;5.40;3.08;;;11.00;90.10;;;;;;5111747;28;20030;-64
2021/12/13 08:44:51;;;;;;;3.95;2.83;;;11.00;90.30;;;;;;5116818;28;20027;-63
2021/12/13 08:47:21;;;;;;;4.78;2.70;;;11.00;90.30;;;;;;5118687;28;20408;-64
2021/12/13 08:49:57;;;;;;;3.80;2.80;;;11.10;90.20;;;;;;5113830;28;20024;-63
2021/12/13 08:52:36;;;;;;;3.88;2.88;;;11.00;90.00;;;;;;5094161;28;20022;-61
2021/12/13 08:55:12;;;;;;;3.55;2.60;;;11.00;90.10;;;;;;5125048;27;20043;-61
2021/12/13 08:57:46;;;;;;;3.78;2.97;;;11.00;90.40;;;;;;5121092;28;20027;-61
2021/12/13 09:00:12;;;;;;;3.75;2.40;;;11.10;90.40;;;;;;5110600;27;20057;-63
2021/12/13 09:02:42;;;;;;;3.78;2.60;;;11.20;90.10;;;;;;5118192;27;20493;-63
2021/12/13 09:05:13;;;;;;;4.90;2.42;;;11.20;89.90;;;;;;5120077;28;20031;-64
2021/12/13 09:08:19;;;;;;;3.78;2.58;;;11.20;90.00;;;;;;5097432;28;20111;-64
2021/12/13 09:10:53;;;;;;;2.85;2.10;;;11.30;90.40;;;;;;5094788;28;20065;-64
2021/12/13 09:13:36;;;;;;;2.78;2.03;;;11.30;90.00;;;;;;5113686;28;20034;-64
2021/12/13 09:16:03;;;;;;;2.60;1.90;;;11.30;90.10;;;;;;5118763;28;20023;-62
2021/12/13 09:18:29;;;;;;;3.47;1.88;;;11.30;89.90;;;;;;5118888;27;20106;-63
2021/12/13 09:20:57;;;;;;;2.45;1.70;;;11.50;90.00;;;;;;5136683;27;20102;-63
2021/12/13 09:23:27;;;;;;;2.55;1.83;;;11.40;88.60;;;;;;5121032;27;20484;-63
2021/12/13 09:26:02;;;;;;;2.33;1.55;;;11.40;89.80;;;;;;5118286;27;20050;-63
2021/12/13 09:28:45;;;;;;;2.45;1.67;;;11.40;89.50;;;;;;5127228;27;20098;-63
2021/12/13 09:31:25;;;;;;;3.27;1.83;;;11.40;89.20;;;;;;5125414;27;20240;-65
2021/12/13 09:33:55;;;;;;;2.30;1.70;;;11.40;89.20;;;;;;5126428;27;20023;-65
2021/12/13 09:36:20;;;;;;;2.47;1.83;;;11.40;89.30;;;;;;5112130;27;20384;-65
2021/12/13 09:39:06;;;;;;;2.47;1.85;;;11.40;88.90;;;;;;5115111;27;20484;-64
2021/12/13 09:41:53;;;;;;;2.13;1.58;;;11.40;88.40;;;;;;5112542;27;20024;-63
2021/12/13 09:44:19;;;;;;;2.90;1.60;;;11.30;88.50;;;;;;5111893;27;20023;-63
2021/12/13 09:47:00;;;;;;;1.65;1.40;;;11.30;89.00;;;;;;5127388;27;20388;-64
2021/12/13 09:49:43;;;;;;;2.63;2.22;;;11.40;89.50;;;;;;5116922;27;20031;-62
2021/12/13 09:52:27;;;;;;;1.98;1.48;;;11.30;88.50;;;;;;5114146;27;20503;-62
2021/12/13 09:55:12;;;;;;;2.00;1.77;;;11.30;89.50;;;;;;5118047;27;20047;-62
2021/12/13 09:57:51;;;;;;;2.47;1.80;;;11.30;88.40;;;;;;5123473;27;20116;-62
2021/12/13 10:00:29;;;;;;;2.05;1.65;;;11.30;88.90;;;;;;5120470;27;20039;-66
2021/12/13 10:03:00;;;;;;;2.17;1.77;;;11.40;89.30;;;;;;5107922;27;20020;-61
2021/12/13 10:05:31;;;;;;;2.15;1.70;;;11.30;88.60;;;;;;5109402;27;20576;-61
2021/12/13 10:08:06;;;;;;;2.50;1.80;;;11.30;88.50;;;;;;5117926;27;20157;-61
2021/12/13 10:10:55;;;;;;;2.47;1.92;;;11.40;89.40;;;;;;5126863;27;20039;-61
2021/12/13 10:13:32;;;;;;;2.45;1.70;;;11.40;88.60;;;;;;5112985;27;20031;-61
2021/12/13 10:16:03;;;;;;;2.70;1.20;;;11.30;87.80;;;;;;5120692;27;20016;-61
2021/12/13 10:18:32;;;;;;;2.30;1.40;;;11.30;88.60;;;;;;5113173;27;20032;-61
2021/12/13 10:21:03;;;;;;;3.63;1.58;;;11.30;88.80;;;;;;5105511;27;20024;-61
2021/12/13 10:23:36;;;;;;;3.38;1.65;;;11.40;88.60;;;;;;5119511;27;20024;-61
2021/12/13 10:26:09;;;;;;;1.52;1.25;;;11.40;87.90;;;;;;5116132;27;20499;-61
2021/12/13 10:28:38;;;;;;;2.10;1.55;;;11.20;87.20;;;;;;5126824;27;20563;-61
2021/12/13 10:31:32;;;;;;;2.65;1.15;;;11.20;88.30;;;;;;5118755;27;20060;-61
2021/12/13 10:33:59;;;;;;;;;;;11.20;88.40;;;;;;5124155;27;20019;-61
2021/12/13 10:36:28;;;;;;;1.45;1.10;;;11.20;87.70;;;;;;5113786;27;19912;-61
2021/12/13 10:38:59;;;;;;;2.20;1.15;;;11.10;88.20;;;;;;5113615;27;20027;-61
2021/12/13 10:41:36;;;;;;;1.20;1.05;;;11.30;89.00;;;;;;5097489;28;20026;-61
2021/12/13 10:44:08;;;;;;;3.10;1.40;;;11.30;88.30;;;;;;5108914;28;20145;-61
2021/12/13 10:46:37;;;;;;;1.55;1.30;;;11.30;87.90;;;;;;5126407;27;20097;-61
2021/12/13 10:49:14;;;;;;;1.75;1.40;;;11.30;87.90;;;;;;5118195;27;20027;-61
2021/12/13 10:51:44;;;;;;;2.10;1.42;;;11.30;87.90;;;;;;5123481;27;20076;-61
2021/12/13 10:54:14;;;;;;;2.33;1.50;;;11.20;87.80;;;;;;5113027;27;20413;-61
2021/12/13 10:56:50;;;;;;;1.88;1.17;;;11.20;87.80;;;;;;5114256;27;20083;-61
2021/12/13 10:59:20;;;;;;;2.20;1.40;;;11.20;87.80;;;;;;5121836;27;20042;-61
2021/12/13 11:01:50;;;;;;;3.13;1.25;;;11.10;87.70;;;;;;5114395;27;20024;-60
2021/12/13 11:04:20;;;;;;;3.05;1.70;;;11.30;88.60;;;;;;5111911;27;20042;-61
2021/12/13 11:06:46;;;;;;;3.75;2.03;;;11.30;88.00;;;;;;5116730;27;20023;-61
2021/12/13 11:09:19;;;;;;;3.47;1.63;;;11.30;87.40;;;;;;5111150;27;20039;-61
2021/12/13 11:12:14;;;;;;;1.65;1.48;;;11.30;87.50;;;;;;5110678;28;20054;-61
2021/12/13 11:14:46;;;;;;;3.97;1.50;;;11.30;87.80;;;;;;5112287;27;20080;-61
2021/12/13 11:17:16;;;;;;;2.47;1.58;;;11.30;87.60;;;;;;5112476;27;20035;-62
2021/12/13 11:19:47;;;;;;;2.35;2.05;;;11.20;87.30;;;;;;5092424;28;20119;-61
2021/12/13 11:22:18;;;;;;;2.35;1.60;;;11.20;87.50;;;;;;5123445;27;20030;-61
2021/12/13 11:24:47;;;;;;;2.35;1.90;;;11.20;87.80;;;;;;5115295;27;20027;-61
2021/12/13 11:27:24;;;;;;;2.03;1.60;;;11.20;87.70;;;;;;5112124;27;20030;-60
2021/12/13 11:29:51;;;;;;;2.42;1.98;;;11.20;87.70;;;;;;5108142;27;20043;-63
2021/12/13 11:32:34;;;;;;;2.35;2.03;;;11.20;88.20;;;;;;5110054;27;20110;-62
2021/12/13 11:35:15;;;;;;;2.15;1.73;;;11.10;87.20;;;;;;5109130;28;20039;-62
2021/12/13 11:38:06;;;;;;;1.92;1.50;;;11.00;88.10;;;;;;5112300;27;20024;-62
2021/12/13 11:41:10;;;;;;;2.50;1.65;;;11.10;88.60;;;;;;5120009;27;20110;-61
2021/12/13 11:44:06;;;;;;;2.30;1.80;;;11.10;87.90;;;;;;5108619;28;20118;-61
2021/12/13 11:47:16;;;;;;;2.60;1.95;;;11.10;87.70;;;;;;5124113;27;20114;-62
2021/12/13 11:50:21;;;;;;;2.88;2.05;;;11.10;88.40;;;;;;5033605;28;20189;-62
2021/12/13 11:53:05;;;;;;;2.40;1.70;;;11.00;87.30;;;;;;5027673;28;20029;-61
2021/12/13 11:55:39;;;;;;;2.78;2.00;;;11.00;87.90;;;;;;5026916;28;20053;-61
2021/12/13 11:58:36;;;;;;;2.83;1.60;;;11.00;88.20;;;;;;5031219;28;20067;-61
2021/12/13 12:01:36;;;;;;;2.40;1.80;;;11.10;88.70;;;;;;5006334;28;20079;-61
2021/12/13 12:04:07;;;;;;;1.92;1.50;;;11.10;88.20;;;;;;5040083;28;20124;-61
2021/12/13 12:06:54;;;;;;;2.22;1.70;;;11.10;88.20;;;;;;5027957;28;20037;-61
2021/12/13 12:09:20;;;;;;;2.60;2.10;;;11.00;87.40;;;;;;5032837;28;20548;-62
2021/12/13 12:12:09;;;;;;;2.90;1.88;;;11.00;87.70;;;;;;5032864;28;20052;-62
2021/12/13 12:14:35;;;;;;;2.63;2.00;;;11.00;88.20;;;;;;5033094;28;20143;-61
2021/12/13 12:17:03;;;;;;;2.03;1.70;;;11.10;88.10;;;;;;5043666;28;20016;-62
2021/12/13 12:19:33;;;;;;;2.65;2.00;;;11.10;87.80;;;;;;5013517;28;20117;-61
2021/12/13 12:22:03;;;;;;;2.10;1.50;;;11.10;87.70;;;;;;5033406;28;20083;-62
2021/12/13 12:24:56;;;;;;;1.80;1.60;;;11.00;87.60;;;;;;5033427;28;20509;-64
2021/12/13 12:27:35;;;;;;;2.40;1.90;;;11.00;88.10;;;;;;5105367;28;20552;-61
2021/12/13 12:30:29;;;;;;;1.92;1.65;;;11.00;87.80;;;;;;5107883;28;20084;-67
2021/12/13 12:32:59;;;;;;;2.47;1.88;;;11.00;88.10;;;;;;5085617;28;20031;-68
2021/12/13 12:35:29;;;;;;;2.28;2.08;;;11.00;87.70;;;;;;5109007;28;20457;-67
2021/12/13 12:38:01;;;;;;;2.28;1.92;;;11.10;88.30;;;;;;5107619;28;20082;-67
2021/12/13 12:40:39;;;;;;;3.25;2.25;;;11.10;88.40;;;;;;5092836;28;20024;-71
2021/12/13 12:43:08;;;;;;;3.25;2.42;;;11.00;87.10;;;;;;5107537;28;20028;-67
2021/12/13 12:45:42;;;;;;;2.85;2.38;;;10.90;87.50;;;;;;5110529;28;20065;-65
2021/12/13 12:48:19;;;;;;;3.30;2.63;;;10.90;88.00;;;;;;5107674;28;20028;-68
2021/12/13 12:50:54;;;;;;;3.20;2.47;;;10.80;87.60;;;;;;5109367;28;20085;-62
2021/12/13 12:53:40;;;;;;;3.17;2.40;;;10.70;87.50;;;;;;5106818;28;20035;-64
2021/12/13 12:56:12;;;;;;;2.60;2.15;;;10.70;88.80;;;;;;5107900;28;20031;-68
2021/12/13 12:59:08;;;;;;;2.70;2.17;;;10.70;88.00;;;;;;5110746;28;20046;-68
2021/12/13 13:01:40;;;;;;;3.40;2.40;;;10.80;88.80;;;;;;5104368;28;20146;-67
2021/12/13 13:04:17;;;;;;;2.53;2.05;;;10.80;88.10;;;;;;5113431;28;20031;-67
2021/12/13 13:07:00;;;;;;;3.65;2.35;;;10.80;89.60;;;;;;5126154;27;20027;-68
2021/12/13 13:10:00;;;;;;;2.95;2.45;;;10.90;88.60;;;;;;5108352;27;20043;-68
2021/12/13 13:12:28;;;;;;;2.80;1.98;;;10.90;88.50;;;;;;5131653;27;20071;-67
2021/12/13 13:15:09;;;;;;;3.03;2.42;;;10.90;88.00;;;;;;5114122;27;20096;-66
2021/12/13 13:17:51;;;;;;;3.75;2.20;;;10.90;88.20;;;;;;5111618;28;20503;-68
2021/12/13 13:20:33;;;;;;;3.80;2.78;;;10.90;88.30;;;;;;5111563;28;20080;-66
2021/12/13 13:23:02;;;;;;;2.93;2.20;;;11.00;88.40;;;;;;5112485;27;20020;-67
2021/12/13 13:25:37;;;;;;;2.65;2.30;;;10.90;87.60;;;;;;5111463;28;20061;-67
2021/12/13 13:28:18;;;;;;;2.92;2.50;;;10.90;87.90;;;;;;5110835;28;20016;-65
2021/12/13 13:30:47;;;;;;;3.10;2.00;;;11.00;88.60;;;;;;5111884;27;20059;-65
2021/12/13 13:33:12;;;;;;;2.75;2.13;;;11.00;87.70;;;;;;5114662;27;20463;-65
2021/12/13 13:35:38;;;;;;;3.33;2.47;;;11.00;87.80;;;;;;5117278;27;20028;-65
2021/12/13 13:38:06;;;;;;;3.95;2.70;;;11.00;87.40;;;;;;5123558;27;20023;-66
2021/12/13 13:40:34;;;;;;;3.53;2.78;;;11.00;87.20;;;;;;5113578;27;20027;-66